Time;durP1;ratioP1;P1;durP2;ratioP2;P2;SDS_P1;SDS_P2;PMS_P1;PMS_P2;Temp;Humidity;BMP_temperature;BMP_pressure;BME280_temperature;BME280_humidity;BME280_pressure;Samples;Min_cycle;Max_cycle;Signal;HPM_P1;HPM_P2
2023/09/25 00:00:21;;;;;;;6.38;3.20;;;;;;;;;;4977398;28;20087;-61
2023/09/25 00:02:49;;;;;;;5.07;2.58;;;;;;;;;;4967127;28;20061;-65
2023/09/25 00:05:17;;;;;;;5.18;2.47;;;;;;;;;;4973162;28;20135;-62
2023/09/25 00:07:44;;;;;;;9.65;4.03;;;;;;;;;;4966697;28;20053;-62
2023/09/25 00:10:11;;;;;;;5.78;2.95;;;;;;;;;;4963051;28;20101;-62
2023/09/25 00:12:37;;;;;;;6.43;2.70;;;;;;;;;;4974767;28;20042;-63
2023/09/25 00:15:06;;;;;;;5.13;2.42;;;;;;;;;;4978530;28;20505;-63
2023/09/25 00:17:33;;;;;;;5.80;2.40;;;;;;;;;;4979743;28;20055;-63
2023/09/25 00:20:01;;;;;;;6.72;2.90;;;;;;;;;;4959012;28;20066;-63
2023/09/25 00:22:28;;;;;;;4.25;2.13;;;;;;;;;;4967651;28;20481;-64
2023/09/25 00:24:56;;;;;;;5.70;2.38;;;;;;;;;;4984458;28;20506;-63
2023/09/25 00:27:23;;;;;;;5.85;2.58;;;;;;;;;;4961559;28;20047;-63
2023/09/25 00:29:49;;;;;;;4.45;2.00;;;;;;;;;;4967122;28;20132;-63
2023/09/25 00:32:17;;;;;;;7.32;2.50;;;;;;;;;;4976995;28;20948;-63
2023/09/25 00:34:43;;;;;;;5.60;2.42;;;;;;;;;;4966656;28;20054;-64
2023/09/25 00:37:11;;;;;;;6.03;2.65;;;;;;;;;;4980220;28;20048;-63
2023/09/25 00:39:38;;;;;;;4.97;2.30;;;;;;;;;;4977900;28;20047;-63
2023/09/25 00:42:05;;;;;;;5.82;2.58;;;;;;;;;;4963292;28;20051;-63
2023/09/25 00:44:32;;;;;;;5.53;2.40;;;;;;;;;;4958104;28;20047;-63
2023/09/25 00:46:59;;;;;;;4.88;2.28;;;;;;;;;;4953081;28;20134;-63
2023/09/25 00:49:26;;;;;;;4.20;2.22;;;;;;;;;;4963011;28;20047;-63
2023/09/25 00:51:54;;;;;;;5.47;2.30;;;;;;;;;;4970489;28;20483;-63
2023/09/25 00:54:22;;;;;;;5.22;2.50;;;;;;;;;;4977886;28;20061;-63
2023/09/25 00:56:50;;;;;;;11.55;3.60;;;;;;;;;;4988251;28;20554;-64
2023/09/25 00:59:18;;;;;;;4.50;2.25;;;;;;;;;;4980215;28;20138;-64
2023/09/25 01:01:45;;;;;;;5.88;2.67;;;;;;;;;;4977644;28;20051;-63
2023/09/25 01:04:12;;;;;;;5.88;2.58;;;;;;;;;;4962519;28;20487;-63
2023/09/25 01:06:38;;;;;;;6.88;2.90;;;;;;;;;;4970404;28;20047;-63
2023/09/25 01:09:08;;;;;;;4.88;2.50;;;;;;;;;;4985297;28;20529;-63
2023/09/25 01:11:36;;;;;;;4.70;2.50;;;;;;;;;;4969049;28;20051;-63
2023/09/25 01:14:03;;;;;;;4.93;2.42;;;;;;;;;;4959196;28;20106;-63
2023/09/25 01:16:30;;;;;;;6.88;3.25;;;;;;;;;;4960687;28;20514;-63
2023/09/25 01:18:57;;;;;;;7.70;3.28;;;;;;;;;;4970748;28;20073;-62
2023/09/25 01:21:24;;;;;;;6.45;3.05;;;;;;;;;;4971069;28;20484;-63
2023/09/25 01:23:52;;;;;;;7.32;3.88;;;;;;;;;;4970699;28;20109;-64
2023/09/25 01:26:19;;;;;;;7.15;3.35;;;;;;;;;;4969907;28;20049;-63
2023/09/25 01:28:46;;;;;;;6.40;3.03;;;;;;;;;;4964110;28;20043;-62
2023/09/25 01:31:13;;;;;;;6.85;3.20;;;;;;;;;;4961253;28;20085;-62
2023/09/25 01:33:40;;;;;;;6.00;4.10;;;;;;;;;;4982555;28;20526;-63
2023/09/25 01:36:09;;;;;;;5.13;3.20;;;;;;;;;;4983611;28;20050;-62
2023/09/25 01:38:35;;;;;;;5.60;2.75;;;;;;;;;;4971629;28;20047;-63
2023/09/25 01:41:03;;;;;;;7.50;3.40;;;;;;;;;;4959464;28;20043;-62
2023/09/25 01:43:30;;;;;;;5.95;3.00;;;;;;;;;;4971515;28;20506;-62
2023/09/25 01:45:57;;;;;;;6.38;3.33;;;;;;;;;;4970224;28;20499;-62
2023/09/25 01:48:25;;;;;;;9.55;3.53;;;;;;;;;;4968111;28;20047;-62
2023/09/25 01:50:52;;;;;;;6.57;3.10;;;;;;;;;;4967303;28;20529;-62
2023/09/25 01:53:18;;;;;;;5.90;3.38;;;;;;;;;;4967431;28;20090;-62
2023/09/25 01:55:45;;;;;;;6.40;3.40;;;;;;;;;;4963633;28;20129;-62
2023/09/25 01:58:13;;;;;;;6.85;3.67;;;;;;;;;;4962216;28;20083;-62
2023/09/25 02:00:40;;;;;;;7.60;4.47;;;;;;;;;;4965001;28;20078;-62
2023/09/25 02:03:07;;;;;;;7.53;3.40;;;;;;;;;;4970189;28;20047;-64
2023/09/25 02:05:34;;;;;;;6.47;3.47;;;;;;;;;;4978450;28;20082;-62
2023/09/25 02:08:00;;;;;;;6.03;3.35;;;;;;;;;;4961803;28;20432;-62
2023/09/25 02:10:27;;;;;;;8.13;3.78;;;;;;;;;;4959577;28;20055;-62
2023/09/25 02:12:54;;;;;;;5.70;2.92;;;;;;;;;;4971146;28;20133;-62
2023/09/25 02:15:22;;;;;;;6.03;3.22;;;;;;;;;;4976677;28;20476;-62
2023/09/25 02:17:48;;;;;;;6.65;3.75;;;;;;;;;;4970326;28;20075;-63
2023/09/25 02:20:18;;;;;;;6.13;3.38;;;;;;;;;;4964733;28;20483;-62
2023/09/25 02:22:45;;;;;;;5.70;3.08;;;;;;;;;;4963521;28;20047;-63
2023/09/25 02:25:12;;;;;;;6.75;3.72;;;;;;;;;;4955731;28;20423;-63
2023/09/25 02:27:39;;;;;;;5.35;2.80;;;;;;;;;;4961860;28;20304;-62
2023/09/25 02:30:07;;;;;;;6.22;2.97;;;;;;;;;;4966435;28;20421;-63
2023/09/25 02:32:35;;;;;;;7.18;3.53;;;;;;;;;;4960366;28;20082;-62
2023/09/25 02:35:02;;;;;;;5.68;3.30;;;;;;;;;;4965958;28;20049;-62
2023/09/25 02:37:30;;;;;;;6.15;3.30;;;;;;;;;;4959543;28;20427;-63
2023/09/25 02:39:57;;;;;;;6.20;3.25;;;;;;;;;;4966905;28;20515;-63
2023/09/25 02:42:24;;;;;;;6.40;3.38;;;;;;;;;;4955297;28;20054;-63
2023/09/25 02:44:51;;;;;;;6.78;3.40;;;;;;;;;;4962598;28;20146;-64
2023/09/25 02:47:18;;;;;;;6.05;3.30;;;;;;;;;;4964023;28;20063;-62
2023/09/25 02:49:46;;;;;;;9.57;3.47;;;;;;;;;;4955515;28;20450;-64
2023/09/25 02:52:12;;;;;;;7.22;4.00;;;;;;;;;;4965465;28;20054;-63
2023/09/25 02:54:39;;;;;;;7.47;3.47;;;;;;;;;;4960998;28;20078;-64
2023/09/25 02:57:06;;;;;;;6.00;3.47;;;;;;;;;;4964395;28;20089;-63
2023/09/25 02:59:32;;;;;;;6.13;3.53;;;;;;;;;;4964189;28;20043;-63
2023/09/25 03:01:58;;;;;;;6.00;3.47;;;;;;;;;;4974463;28;20093;-63
2023/09/25 03:04:25;;;;;;;6.72;3.65;;;;;;;;;;4974378;28;20078;-63
2023/09/25 03:06:53;;;;;;;7.70;3.67;;;;;;;;;;4974707;28;20093;-63
2023/09/25 03:09:19;;;;;;;6.45;3.72;;;;;;;;;;4958539;28;20073;-63
2023/09/25 03:11:46;;;;;;;7.10;3.78;;;;;;;;;;4959503;28;20047;-63
2023/09/25 03:14:13;;;;;;;6.63;3.55;;;;;;;;;;4962877;28;20137;-63
2023/09/25 03:16:40;;;;;;;6.25;3.80;;;;;;;;;;4960457;28;20047;-63
2023/09/25 03:19:07;;;;;;;7.45;3.47;;;;;;;;;;4965444;28;20051;-62
2023/09/25 03:21:34;;;;;;;7.55;3.80;;;;;;;;;;4960961;28;20214;-62
2023/09/25 03:24:02;;;;;;;7.63;4.10;;;;;;;;;;4954867;28;20618;-62
2023/09/25 03:26:29;;;;;;;6.90;3.95;;;;;;;;;;4954516;28;20051;-62
2023/09/25 03:28:55;;;;;;;6.78;3.58;;;;;;;;;;4962836;28;20451;-62
2023/09/25 03:31:22;;;;;;;7.28;3.78;;;;;;;;;;4954369;28;20051;-62
2023/09/25 03:33:49;;;;;;;5.80;3.25;;;;;;;;;;4981126;28;20175;-63
2023/09/25 03:36:15;;;;;;;7.35;3.80;;;;;;;;;;4974080;28;20130;-63
2023/09/25 03:38:42;;;;;;;6.80;3.95;;;;;;;;;;4974792;28;20125;-63
2023/09/25 03:41:10;;;;;;;8.40;4.10;;;;;;;;;;4966977;28;20046;-63
2023/09/25 03:43:37;;;;;;;6.35;3.72;;;;;;;;;;4972138;28;20079;-62
2023/09/25 03:46:03;;;;;;;6.35;3.40;;;;;;;;;;4960108;28;20427;-63
2023/09/25 03:48:30;;;;;;;7.55;4.00;;;;;;;;;;4961021;28;20130;-63
2023/09/25 03:50:57;;;;;;;4.82;2.97;;;;;;;;;;4965972;28;20046;-63
2023/09/25 03:53:24;;;;;;;6.15;3.60;;;;;;;;;;4973416;28;20058;-63
2023/09/25 03:55:51;;;;;;;6.07;3.15;;;;;;;;;;4974427;28;20171;-63
2023/09/25 03:58:19;;;;;;;7.05;4.00;;;;;;;;;;4972604;28;20047;-62
2023/09/25 04:00:45;;;;;;;6.00;3.80;;;;;;;;;;4973110;28;20434;-63
2023/09/25 04:03:12;;;;;;;5.82;3.17;;;;;;;;;;4973197;28;20051;-63
2023/09/25 04:05:39;;;;;;;6.53;3.90;;;;;;;;;;4965397;28;20133;-63
2023/09/25 04:08:06;;;;;;;6.38;3.63;;;;;;;;;;4973534;28;20483;-62
2023/09/25 04:10:33;;;;;;;7.75;3.92;;;;;;;;;;4972586;28;20062;-64
2023/09/25 04:13:00;;;;;;;7.03;4.40;;;;;;;;;;4964983;28;20498;-63
2023/09/25 04:15:28;;;;;;;7.50;4.15;;;;;;;;;;4964842;28;20054;-63
2023/09/25 04:17:57;;;;;;;6.70;3.95;;;;;;;;;;4964810;28;20510;-63
2023/09/25 04:20:25;;;;;;;6.07;3.88;;;;;;;;;;4974821;28;20412;-63
2023/09/25 04:22:52;;;;;;;7.00;4.03;;;;;;;;;;4969585;28;20050;-65
2023/09/25 04:25:20;;;;;;;7.50;4.45;;;;;;;;;;4961844;28;20081;-64
2023/09/25 04:27:48;;;;;;;8.10;4.15;;;;;;;;;;4961481;28;20106;-64
2023/09/25 04:30:15;;;;;;;6.05;3.70;;;;;;;;;;4966619;28;20391;-64
2023/09/25 04:32:44;;;;;;;9.75;4.82;;;;;;;;;;4967412;28;20050;-63
2023/09/25 04:35:12;;;;;;;7.57;4.15;;;;;;;;;;4972760;28;20050;-62
2023/09/25 04:37:39;;;;;;;6.57;3.90;;;;;;;;;;4973227;28;20490;-63
2023/09/25 04:40:13;;;;;;;7.90;4.28;;;;;;;;;;4966892;28;20134;-62
2023/09/25 04:42:40;;;;;;;8.48;4.30;;;;;;;;;;4964746;28;20054;-62
2023/09/25 04:45:12;;;;;;;7.30;4.20;;;;;;;;;;4972654;28;20541;-63
2023/09/25 04:47:39;;;;;;;7.40;4.03;;;;;;;;;;4972719;28;20101;-63
2023/09/25 04:50:08;;;;;;;8.77;4.35;;;;;;;;;;4972614;28;20129;-63
2023/09/25 04:52:35;;;;;;;8.13;4.60;;;;;;;;;;4972554;28;20122;-62
2023/09/25 04:55:05;;;;;;;7.63;4.78;;;;;;;;;;4972440;28;20414;-62
2023/09/25 04:57:32;;;;;;;8.32;4.93;;;;;;;;;;4972973;28;20375;-62
2023/09/25 04:59:58;;;;;;;6.65;4.50;;;;;;;;;;4972449;28;20098;-63
2023/09/25 05:02:25;;;;;;;6.40;4.55;;;;;;;;;;4961249;28;20078;-63
2023/09/25 05:04:52;;;;;;;9.02;4.95;;;;;;;;;;4953484;29;20130;-63
2023/09/25 05:07:20;;;;;;;7.68;5.35;;;;;;;;;;4964205;28;20102;-62
2023/09/25 05:09:46;;;;;;;8.13;4.88;;;;;;;;;;4972625;28;20062;-63
2023/09/25 05:12:14;;;;;;;9.48;4.80;;;;;;;;;;4972372;28;20046;-63
2023/09/25 05:14:41;;;;;;;7.47;5.22;;;;;;;;;;4966193;28;20458;-62
2023/09/25 05:17:07;;;;;;;8.90;6.25;;;;;;;;;;4982515;28;20086;-63
2023/09/25 05:19:34;;;;;;;9.30;6.18;;;;;;;;;;4972700;28;20557;-63
2023/09/25 05:22:01;;;;;;;8.48;5.88;;;;;;;;;;4976354;28;20073;-62
2023/09/25 05:24:29;;;;;;;7.60;5.20;;;;;;;;;;4965570;28;20139;-63
2023/09/25 05:26:55;;;;;;;8.23;5.13;;;;;;;;;;4968714;28;20142;-63
2023/09/25 05:29:22;;;;;;;9.80;5.85;;;;;;;;;;4972270;28;20053;-63
2023/09/25 05:31:49;;;;;;;8.82;5.85;;;;;;;;;;4988406;28;20074;-63
2023/09/25 05:34:15;;;;;;;7.38;5.03;;;;;;;;;;4956535;28;20048;-62
2023/09/25 05:36:42;;;;;;;9.20;5.47;;;;;;;;;;4972175;28;20158;-62
2023/09/25 05:39:10;;;;;;;8.13;5.30;;;;;;;;;;4972387;28;20483;-62
2023/09/25 05:41:38;;;;;;;10.98;5.85;;;;;;;;;;4973867;28;20086;-63
2023/09/25 05:44:06;;;;;;;9.70;5.45;;;;;;;;;;4976335;28;20129;-63
2023/09/25 05:46:32;;;;;;;7.47;5.32;;;;;;;;;;4975320;28;20082;-62
2023/09/25 05:48:59;;;;;;;11.13;6.22;;;;;;;;;;4972021;28;20110;-63
2023/09/25 05:51:27;;;;;;;10.52;6.07;;;;;;;;;;4987684;28;20716;-63
2023/09/25 05:53:53;;;;;;;8.82;6.32;;;;;;;;;;4978516;28;20055;-63
2023/09/25 05:56:20;;;;;;;9.48;6.03;;;;;;;;;;4976404;28;20057;-63
2023/09/25 05:58:48;;;;;;;10.77;5.90;;;;;;;;;;4977940;28;20464;-63
2023/09/25 06:01:15;;;;;;;9.32;6.65;;;;;;;;;;4973634;28;20450;-61
2023/09/25 06:03:41;;;;;;;9.75;5.65;;;;;;;;;;4965502;28;20499;-61
2023/09/25 06:06:08;;;;;;;10.57;5.97;;;;;;;;;;4973638;28;20478;-63
2023/09/25 06:08:35;;;;;;;9.25;5.78;;;;;;;;;;4990202;28;20062;-62
2023/09/25 06:11:02;;;;;;;9.98;5.95;;;;;;;;;;4967262;28;20138;-63
2023/09/25 06:13:30;;;;;;;9.82;6.32;;;;;;;;;;4969788;28;20047;-63
2023/09/25 06:15:58;;;;;;;9.30;5.85;;;;;;;;;;4969129;28;20478;-63
2023/09/25 06:18:25;;;;;;;8.23;5.45;;;;;;;;;;4956748;28;20055;-64
2023/09/25 06:20:52;;;;;;;8.70;5.28;;;;;;;;;;4972903;28;20066;-65
2023/09/25 06:23:18;;;;;;;9.52;5.72;;;;;;;;;;4968134;28;20046;-63
2023/09/25 06:25:45;;;;;;;9.25;5.55;;;;;;;;;;4968398;28;20054;-64
2023/09/25 06:28:14;;;;;;;9.90;5.68;;;;;;;;;;4963488;28;20051;-64
2023/09/25 06:30:41;;;;;;;10.10;5.57;;;;;;;;;;4961840;28;20046;-65
2023/09/25 06:33:09;;;;;;;10.07;6.05;;;;;;;;;;4974669;28;20120;-66
2023/09/25 06:35:36;;;;;;;8.77;5.38;;;;;;;;;;4967160;28;20054;-65
2023/09/25 06:38:03;;;;;;;11.13;6.07;;;;;;;;;;4964201;28;20130;-65
2023/09/25 06:40:30;;;;;;;9.23;5.90;;;;;;;;;;4964883;28;20557;-65
2023/09/25 06:42:56;;;;;;;7.22;4.72;;;;;;;;;;4966120;28;20137;-64
2023/09/25 06:45:23;;;;;;;8.73;5.50;;;;;;;;;;4969685;28;20059;-65
2023/09/25 06:47:51;;;;;;;10.60;5.75;;;;;;;;;;4966424;28;20089;-65
2023/09/25 06:50:19;;;;;;;9.38;5.63;;;;;;;;;;4964239;28;20122;-65
2023/09/25 06:52:46;;;;;;;9.50;5.35;;;;;;;;;;4967793;28;20082;-65
2023/09/25 06:55:13;;;;;;;7.72;5.35;;;;;;;;;;4963610;28;20075;-65
2023/09/25 06:57:40;;;;;;;8.27;5.50;;;;;;;;;;4966716;28;20039;-64
2023/09/25 07:00:09;;;;;;;8.02;5.05;;;;;;;;;;4967966;28;20129;-64
2023/09/25 07:02:36;;;;;;;9.50;5.57;;;;;;;;;;4963397;28;20062;-65
2023/09/25 07:05:03;;;;;;;8.45;4.85;;;;;;;;;;4964086;28;20504;-65
2023/09/25 07:07:31;;;;;;;7.05;4.88;;;;;;;;;;4963333;28;20126;-65
2023/09/25 07:09:58;;;;;;;8.05;4.63;;;;;;;;;;4969692;28;20042;-65
2023/09/25 07:12:25;;;;;;;6.28;4.32;;;;;;;;;;4966167;28;20050;-65
2023/09/25 07:14:55;;;;;;;8.93;5.43;;;;;;;;;;4973768;28;20187;-65
2023/09/25 07:17:22;;;;;;;8.77;4.85;;;;;;;;;;4957256;28;20114;-65
2023/09/25 07:19:51;;;;;;;9.32;4.85;;;;;;;;;;4973247;28;20043;-65
2023/09/25 07:22:17;;;;;;;8.18;5.70;;;;;;;;;;4967167;28;20512;-65
2023/09/25 07:24:45;;;;;;;6.80;4.45;;;;;;;;;;4971509;28;20141;-65
2023/09/25 07:27:12;;;;;;;10.98;4.35;;;;;;;;;;4957705;28;20537;-65
2023/09/25 07:29:42;;;;;;;7.93;4.45;;;;;;;;;;4962043;28;20075;-65
2023/09/25 07:32:09;;;;;;;7.05;4.15;;;;;;;;;;4960456;28;20089;-65
2023/09/25 07:34:35;;;;;;;6.82;4.28;;;;;;;;;;4960324;28;22231;-72
2023/09/25 07:37:04;;;;;;;6.55;4.60;;;;;;;;;;4972465;28;20043;-70
2023/09/25 07:39:31;;;;;;;8.20;4.63;;;;;;;;;;4973090;28;20047;-67
2023/09/25 07:41:59;;;;;;;7.03;4.47;;;;;;;;;;4967781;28;20129;-65
2023/09/25 07:44:26;;;;;;;9.55;4.47;;;;;;;;;;4960716;28;20043;-69
2023/09/25 07:46:53;;;;;;;8.05;4.53;;;;;;;;;;4970381;28;20053;-67
2023/09/25 07:49:20;;;;;;;11.18;4.55;;;;;;;;;;4968547;28;20458;-67
2023/09/25 07:51:48;;;;;;;7.25;3.95;;;;;;;;;;4964794;28;20052;-65
2023/09/25 07:54:15;;;;;;;9.02;3.92;;;;;;;;;;4964772;28;20097;-65
2023/09/25 07:56:44;;;;;;;8.43;4.20;;;;;;;;;;4962411;28;20461;-65
2023/09/25 07:59:13;;;;;;;5.72;3.63;;;;;;;;;;4973104;28;20085;-65
2023/09/25 08:01:42;;;;;;;8.60;4.10;;;;;;;;;;4965288;28;20047;-65
2023/09/25 08:04:08;;;;;;;8.43;4.38;;;;;;;;;;4967646;28;20561;-65
2023/09/25 08:06:35;;;;;;;7.30;4.22;;;;;;;;;;4972073;28;20488;-65
2023/09/25 08:09:03;;;;;;;7.05;3.75;;;;;;;;;;4972244;28;20138;-65
2023/09/25 08:11:30;;;;;;;7.97;4.05;;;;;;;;;;4976478;28;20053;-66
2023/09/25 08:13:56;;;;;;;8.02;4.22;;;;;;;;;;4964518;28;20049;-66
2023/09/25 08:16:27;;;;;;;6.75;4.05;;;;;;;;;;4970051;28;20100;-66
2023/09/25 08:18:53;;;;;;;8.75;4.95;;;;;;;;;;4972909;28;20129;-67
2023/09/25 08:21:20;;;;;;;6.03;3.97;;;;;;;;;;4967111;28;20426;-63
2023/09/25 08:23:48;;;;;;;6.32;3.83;;;;;;;;;;4972281;28;20050;-64
2023/09/25 08:26:16;;;;;;;7.22;4.03;;;;;;;;;;4969687;28;20150;-64
2023/09/25 08:28:43;;;;;;;6.75;3.70;;;;;;;;;;4969456;28;20051;-65
2023/09/25 08:31:09;;;;;;;5.57;3.55;;;;;;;;;;4981423;28;20051;-64
2023/09/25 08:33:39;;;;;;;7.40;3.80;;;;;;;;;;4972808;28;20493;-65
2023/09/25 08:36:10;;;;;;;6.55;3.92;;;;;;;;;;4975950;28;20050;-65
2023/09/25 08:38:36;;;;;;;5.55;3.15;;;;;;;;;;4971787;28;20043;-65
2023/09/25 08:41:03;;;;;;;6.03;3.53;;;;;;;;;;4967773;28;20039;-65
2023/09/25 08:43:30;;;;;;;6.05;3.17;;;;;;;;;;4970695;28;20051;-66
2023/09/25 08:45:58;;;;;;;5.68;3.03;;;;;;;;;;4971997;28;20042;-65
2023/09/25 08:48:24;;;;;;;9.00;3.85;;;;;;;;;;4971793;28;20700;-65
2023/09/25 08:50:53;;;;;;;7.57;3.45;;;;;;;;;;4981439;28;20101;-65
2023/09/25 08:53:20;;;;;;;5.20;3.05;;;;;;;;;;4974060;28;20069;-65
2023/09/25 08:55:47;;;;;;;4.93;3.40;;;;;;;;;;4977599;28;20050;-65
2023/09/25 08:58:14;;;;;;;6.18;3.20;;;;;;;;;;4969743;28;20047;-64
2023/09/25 09:00:41;;;;;;;5.97;3.35;;;;;;;;;;4964499;28;20586;-64
2023/09/25 09:03:08;;;;;;;7.45;3.58;;;;;;;;;;4970203;28;20074;-65
2023/09/25 09:05:53;;;;;;;;;;;;;;;;;;;;;
2023/09/25 09:08:21;;;;;;;6.15;3.00;;;;;;;;;;4969129;28;20061;-66
2023/09/25 09:10:48;;;;;;;6.57;3.15;;;;;;;;;;4968305;28;20129;-66
2023/09/25 09:13:16;;;;;;;6.30;3.50;;;;;;;;;;4963970;28;20046;-65
2023/09/25 09:15:43;;;;;;;4.80;3.15;;;;;;;;;;4962819;28;20042;-66
2023/09/25 09:18:21;;;;;;;6.90;3.05;;;;;;;;;;4978958;28;20055;-65
2023/09/25 09:20:48;;;;;;;5.30;2.80;;;;;;;;;;4963842;28;20570;-65
2023/09/25 09:23:15;;;;;;;4.88;3.25;;;;;;;;;;4966938;28;20062;-66
2023/09/25 09:25:45;;;;;;;6.50;3.45;;;;;;;;;;4976102;28;20418;-67
2023/09/25 09:28:12;;;;;;;5.30;3.08;;;;;;;;;;4970287;28;20146;-66
2023/09/25 09:30:38;;;;;;;5.72;3.17;;;;;;;;;;4971059;28;20134;-66
2023/09/25 09:33:08;;;;;;;6.85;3.90;;;;;;;;;;4970172;28;20137;-66
2023/09/25 09:35:35;;;;;;;5.18;3.20;;;;;;;;;;4968072;28;20043;-67
2023/09/25 09:38:04;;;;;;;6.93;3.40;;;;;;;;;;4967491;28;20486;-65
2023/09/25 09:40:31;;;;;;;4.65;2.70;;;;;;;;;;4967055;28;20065;-66
2023/09/25 09:42:59;;;;;;;6.40;3.03;;;;;;;;;;4975189;28;20517;-64
2023/09/25 09:45:28;;;;;;;5.88;2.83;;;;;;;;;;4977074;28;20046;-65
2023/09/25 09:47:56;;;;;;;4.78;2.60;;;;;;;;;;4970038;28;20078;-64
2023/09/25 09:50:28;;;;;;;4.63;2.83;;;;;;;;;;4976451;28;20047;-66
2023/09/25 09:52:56;;;;;;;3.88;2.47;;;;;;;;;;4968162;28;20494;-66
2023/09/25 09:55:23;;;;;;;5.95;3.00;;;;;;;;;;4965510;28;20049;-65
2023/09/25 09:57:51;;;;;;;5.38;3.17;;;;;;;;;;4974526;28;20650;-65
2023/09/25 10:00:19;;;;;;;4.30;2.65;;;;;;;;;;4976959;28;20047;-66
2023/09/25 10:02:47;;;;;;;6.68;4.57;;;;;;;;;;4972334;28;20053;-66
2023/09/25 10:05:17;;;;;;;4.97;3.03;;;;;;;;;;4968762;28;20054;-65
2023/09/25 10:08:10;;;;;;;5.53;3.20;;;;;;;;;;4968549;28;20113;-65
2023/09/25 10:10:38;;;;;;;5.63;3.08;;;;;;;;;;4971824;28;20050;-65
2023/09/25 10:13:08;;;;;;;5.43;2.95;;;;;;;;;;4979283;28;20101;-66
2023/09/25 10:15:38;;;;;;;5.30;3.00;;;;;;;;;;4980217;28;20049;-66
2023/09/25 10:18:06;;;;;;;5.47;3.10;;;;;;;;;;4980608;28;20134;-65
2023/09/25 10:20:36;;;;;;;5.50;2.83;;;;;;;;;;4972420;28;20046;-65
2023/09/25 10:23:09;;;;;;;6.13;3.20;;;;;;;;;;4964597;28;20046;-65
2023/09/25 10:25:51;;;;;;;6.70;3.20;;;;;;;;;;4963460;28;20553;-65
2023/09/25 10:28:22;;;;;;;6.00;3.00;;;;;;;;;;4965605;28;20106;-66
2023/09/25 10:30:51;;;;;;;7.93;3.40;;;;;;;;;;4969842;28;20042;-65
2023/09/25 10:33:18;;;;;;;5.85;3.15;;;;;;;;;;4970618;28;20056;-66
2023/09/25 10:35:48;;;;;;;4.78;3.10;;;;;;;;;;4968413;28;20050;-65
2023/09/25 10:38:17;;;;;;;8.18;3.70;;;;;;;;;;4970808;28;20046;-66
2023/09/25 10:40:45;;;;;;;4.93;3.30;;;;;;;;;;4975335;28;20082;-65
2023/09/25 10:43:12;;;;;;;5.90;3.17;;;;;;;;;;4979403;28;20182;-65
2023/09/25 10:45:39;;;;;;;6.70;3.40;;;;;;;;;;4981905;28;20046;-66
2023/09/25 10:48:07;;;;;;;6.75;3.05;;;;;;;;;;4973669;28;20137;-64
2023/09/25 10:50:37;;;;;;;4.18;2.67;;;;;;;;;;4979194;28;20137;-65
2023/09/25 10:53:04;;;;;;;5.53;2.70;;;;;;;;;;4975258;28;20042;-64
2023/09/25 10:55:32;;;;;;;8.75;3.28;;;;;;;;;;4972052;28;20669;-65
2023/09/25 10:57:59;;;;;;;4.53;2.80;;;;;;;;;;4978078;28;20109;-66
2023/09/25 11:00:25;;;;;;;4.93;3.10;;;;;;;;;;4970706;28;20074;-65
2023/09/25 11:02:52;;;;;;;5.95;3.33;;;;;;;;;;4975970;28;20043;-65
2023/09/25 11:05:22;;;;;;;6.45;3.30;;;;;;;;;;4978579;28;20057;-65
2023/09/25 11:07:49;;;;;;;6.68;3.63;;;;;;;;;;4980022;28;20117;-65
2023/09/25 11:10:16;;;;;;;5.50;3.05;;;;;;;;;;4978698;28;20091;-65
2023/09/25 11:12:47;;;;;;;5.05;2.70;;;;;;;;;;4967179;28;20133;-65
2023/09/25 11:15:13;;;;;;;;;;;;;;;;;;4975562;28;20051;-65
2023/09/25 11:17:40;;;;;;;5.07;3.25;;;;;;;;;;4977790;28;19973;-65
2023/09/25 11:20:12;;;;;;;5.60;3.78;;;;;;;;;;4972665;28;20533;-65
2023/09/25 11:22:41;;;;;;;5.78;3.65;;;;;;;;;;4976538;28;20486;-66
2023/09/25 11:25:12;;;;;;;7.18;3.72;;;;;;;;;;4971214;28;20054;-66
2023/09/25 11:27:39;;;;;;;8.82;4.05;;;;;;;;;;4975254;28;20533;-66
2023/09/25 11:30:13;;;;;;;6.00;3.20;;;;;;;;;;4983041;28;20470;-67
2023/09/25 11:32:40;;;;;;;5.03;3.00;;;;;;;;;;4975459;28;20079;-67
2023/09/25 11:35:12;;;;;;;5.95;3.45;;;;;;;;;;4966882;28;20050;-65
2023/09/25 11:37:55;;;;;;;6.43;3.63;;;;;;;;;;4977618;28;20479;-65
2023/09/25 11:40:22;;;;;;;7.60;4.15;;;;;;;;;;4972101;28;20173;-66
2023/09/25 11:42:48;;;;;;;5.80;3.40;;;;;;;;;;4973782;28;20046;-66
2023/09/25 11:45:15;;;;;;;6.10;3.53;;;;;;;;;;4975877;28;20240;-66
2023/09/25 11:47:42;;;;;;;6.28;3.42;;;;;;;;;;4973318;28;20054;-66
2023/09/25 11:50:11;;;;;;;18.40;9.25;;;;;;;;;;4976334;28;22514;-65
2023/09/25 11:52:37;;;;;;;9.32;5.38;;;;;;;;;;4971556;28;20189;-66
2023/09/25 11:55:07;;;;;;;8.30;4.90;;;;;;;;;;4978404;28;20054;-66
2023/09/25 11:57:34;;;;;;;6.88;3.38;;;;;;;;;;4971436;28;20049;-66
2023/09/25 12:00:01;;;;;;;6.22;3.90;;;;;;;;;;4970316;28;20150;-66
2023/09/25 12:02:30;;;;;;;7.93;3.72;;;;;;;;;;4977038;28;20585;-65
2023/09/25 12:04:57;;;;;;;6.77;3.90;;;;;;;;;;4962948;28;20052;-63
2023/09/25 12:07:24;;;;;;;7.55;4.10;;;;;;;;;;4970845;28;20124;-64
2023/09/25 12:09:51;;;;;;;7.50;3.88;;;;;;;;;;4979012;28;20088;-63
2023/09/25 12:12:19;;;;;;;7.35;3.67;;;;;;;;;;4976562;28;20062;-64
2023/09/25 12:14:46;;;;;;;5.55;3.67;;;;;;;;;;4966692;28;20130;-64
2023/09/25 12:17:13;;;;;;;7.00;4.10;;;;;;;;;;4972655;28;20059;-64
2023/09/25 12:19:40;;;;;;;7.03;4.00;;;;;;;;;;4965945;28;20083;-65
2023/09/25 12:22:07;;;;;;;5.10;3.80;;;;;;;;;;4964661;28;20520;-63
2023/09/25 12:24:33;;;;;;;5.68;3.33;;;;;;;;;;4969645;28;20043;-67
2023/09/25 12:27:00;;;;;;;7.28;3.97;;;;;;;;;;4957706;28;20049;-65
2023/09/25 12:29:28;;;;;;;6.22;3.58;;;;;;;;;;4970358;28;20157;-67
2023/09/25 12:31:55;;;;;;;6.30;4.10;;;;;;;;;;4957993;28;21566;-64
2023/09/25 12:34:21;;;;;;;7.82;3.80;;;;;;;;;;4964951;28;20144;-63
2023/09/25 12:36:48;;;;;;;8.38;3.67;;;;;;;;;;4970009;28;20141;-63
2023/09/25 12:39:16;;;;;;;5.93;3.53;;;;;;;;;;4981235;28;20134;-63
2023/09/25 12:41:43;;;;;;;4.88;3.42;;;;;;;;;;4974322;28;20047;-63
2023/09/25 12:44:10;;;;;;;8.23;4.05;;;;;;;;;;4979096;28;20130;-63
2023/09/25 12:46:38;;;;;;;4.75;3.50;;;;;;;;;;4969327;28;20047;-63
2023/09/25 12:49:05;;;;;;;5.80;3.20;;;;;;;;;;4972752;28;20756;-64
2023/09/25 12:51:31;;;;;;;7.90;4.40;;;;;;;;;;4981612;28;20054;-64
2023/09/25 12:53:58;;;;;;;5.47;3.88;;;;;;;;;;4978925;28;20137;-64
2023/09/25 12:56:25;;;;;;;6.10;3.80;;;;;;;;;;4964915;28;20053;-63
2023/09/25 12:58:54;;;;;;;5.90;3.88;;;;;;;;;;4971962;28;20101;-64
2023/09/25 13:01:21;;;;;;;7.37;3.00;;;;;;;;;;4974378;28;20065;-64
2023/09/25 13:03:50;;;;;;;5.38;3.20;;;;;;;;;;4972429;28;20148;-64
2023/09/25 13:06:17;;;;;;;6.25;3.28;;;;;;;;;;4970921;28;20101;-64
2023/09/25 13:08:43;;;;;;;5.47;3.45;;;;;;;;;;4969584;28;20574;-63
2023/09/25 13:11:11;;;;;;;6.95;3.88;;;;;;;;;;4968928;28;20514;-64
2023/09/25 13:13:38;;;;;;;6.00;3.30;;;;;;;;;;4978409;28;20486;-64
2023/09/25 13:16:05;;;;;;;5.03;3.10;;;;;;;;;;4972934;28;20465;-64
2023/09/25 13:18:32;;;;;;;5.30;3.00;;;;;;;;;;4967943;28;20043;-64
2023/09/25 13:21:00;;;;;;;8.18;4.00;;;;;;;;;;4978187;28;20141;-64
2023/09/25 13:23:26;;;;;;;5.28;3.25;;;;;;;;;;4976701;28;20078;-64
2023/09/25 13:25:53;;;;;;;5.03;3.20;;;;;;;;;;4979892;28;20126;-64
2023/09/25 13:28:20;;;;;;;6.10;3.20;;;;;;;;;;4976434;28;20055;-63
2023/09/25 13:30:46;;;;;;;5.95;3.30;;;;;;;;;;4965369;28;20058;-64
2023/09/25 13:33:13;;;;;;;5.32;3.30;;;;;;;;;;4972085;28;20046;-65
2023/09/25 13:35:40;;;;;;;5.63;2.90;;;;;;;;;;4969348;28;20055;-64
2023/09/25 13:38:08;;;;;;;6.05;3.47;;;;;;;;;;4969487;28;20043;-64
2023/09/25 13:40:35;;;;;;;5.35;3.08;;;;;;;;;;4966581;28;20082;-64
2023/09/25 13:43:01;;;;;;;5.72;3.40;;;;;;;;;;4970322;28;20126;-64
2023/09/25 13:45:29;;;;;;;5.85;3.60;;;;;;;;;;4971909;28;20138;-64
2023/09/25 13:47:56;;;;;;;5.22;3.00;;;;;;;;;;4968497;28;20051;-63
2023/09/25 13:50:22;;;;;;;5.43;3.10;;;;;;;;;;4981130;28;20069;-64
2023/09/25 13:52:49;;;;;;;5.13;3.30;;;;;;;;;;4978636;28;20070;-65
2023/09/25 13:55:17;;;;;;;6.13;3.58;;;;;;;;;;4970938;28;20134;-64
2023/09/25 13:57:44;;;;;;;26.35;13.10;;;;;;;;;;4973546;28;20096;-64
2023/09/25 14:00:11;;;;;;;8.93;4.85;;;;;;;;;;4968290;28;20047;-64
2023/09/25 14:02:38;;;;;;;8.25;4.45;;;;;;;;;;4971899;28;20086;-64
2023/09/25 14:05:06;;;;;;;16.10;7.97;;;;;;;;;;4975310;28;20050;-64
2023/09/25 14:07:33;;;;;;;8.85;4.90;;;;;;;;;;4971584;28;20047;-64
2023/09/25 14:10:00;;;;;;;7.40;3.83;;;;;;;;;;4983741;28;20153;-64
2023/09/25 14:12:28;;;;;;;5.65;3.80;;;;;;;;;;4973982;28;20343;-64
2023/09/25 14:14:55;;;;;;;5.20;3.65;;;;;;;;;;4974812;28;20042;-64
2023/09/25 14:17:21;;;;;;;4.40;3.20;;;;;;;;;;4975886;28;20492;-64
2023/09/25 14:19:48;;;;;;;5.65;3.58;;;;;;;;;;4979688;28;20042;-64
2023/09/25 14:22:15;;;;;;;6.00;2.90;;;;;;;;;;4981528;28;20042;-64
2023/09/25 14:24:42;;;;;;;6.95;3.95;;;;;;;;;;4971754;28;20047;-64
2023/09/25 14:27:08;;;;;;;5.25;3.10;;;;;;;;;;4971964;28;20418;-64
2023/09/25 14:29:37;;;;;;;4.95;3.10;;;;;;;;;;4975466;28;20051;-64
2023/09/25 14:32:04;;;;;;;6.82;3.92;;;;;;;;;;4976798;28;20089;-64
2023/09/25 14:34:31;;;;;;;4.97;3.80;;;;;;;;;;4972953;28;20054;-64
2023/09/25 14:36:58;;;;;;;5.95;3.10;;;;;;;;;;4980436;28;20047;-62
2023/09/25 14:39:28;;;;;;;4.82;3.10;;;;;;;;;;4974323;28;20058;-64
2023/09/25 14:41:55;;;;;;;4.57;2.95;;;;;;;;;;4975888;28;20038;-64
2023/09/25 14:44:22;;;;;;;5.32;3.50;;;;;;;;;;4975841;28;20055;-64